Watson, Arkansas
Current Conditions -  °F | °C
As of 10:15 AM on Saturday 20 Dec 2014 (Local Time) from KRNV Reporting Station
Clear Clear  
Wind Chill: 42°   Ceiling: Unl
Heat Index: 45°   Visibility: 10mi
Dew Point: 37°   Wind: 6mph
Humidity: 74%   Direction: 60°ENE
Pressure: 30.28"   Gusts: NA
Location:  33.9°N, 91.26°W
Report Text: KRNV 201615Z AUTO 06005KT 10SM CLR 07/03 A3028 RMK AO2 T00710027
Loading
Personal Weather Stations






























Interactive Weather Map New forecast layout! Learn more

10-Day Weather Forecast

Advertisements
Track Severe Weather on mobile